createdAt,value
2022-09-03T00:00:25.780Z,1.50
2022-09-03T00:03:04.743Z,1.43
2022-09-03T00:05:40.199Z,1.47
2022-09-03T00:08:24.059Z,1.30
2022-09-03T00:11:00.728Z,1.57
2022-09-03T00:13:32.700Z,1.13
2022-09-03T00:16:03.339Z,1.70
2022-09-03T00:18:33.101Z,1.57
2022-09-03T00:21:12.788Z,1.43
2022-09-03T00:23:42.320Z,1.40
2022-09-03T00:26:14.917Z,1.80
2022-09-03T00:29:03.888Z,1.27
2022-09-03T00:31:44.828Z,1.30
2022-09-03T00:34:32.833Z,1.43
2022-09-03T00:36:59.712Z,1.67
2022-09-03T00:39:29.995Z,1.73
2022-09-03T00:42:24.292Z,1.40
2022-09-03T00:45:13.896Z,1.30
2022-09-03T00:47:49.870Z,1.57
2022-09-03T00:50:47.641Z,1.53
2022-09-03T00:53:20.187Z,1.47
2022-09-03T00:55:58.769Z,1.47
2022-09-03T00:58:52.012Z,1.30
2022-09-03T01:01:30.263Z,1.13
2022-09-03T01:04:29.715Z,1.47
2022-09-03T01:07:04.454Z,1.50
2022-09-03T01:09:48.241Z,1.60
2022-09-03T01:12:27.202Z,1.30
2022-09-03T01:15:20.580Z,1.40
2022-09-03T01:17:47.351Z,1.30
2022-09-03T01:20:22.691Z,1.43
2022-09-03T01:23:24.729Z,1.30
2022-09-03T01:26:07.682Z,1.50
2022-09-03T01:28:54.765Z,1.37
2022-09-03T01:31:37.524Z,1.30
2022-09-03T01:34:22.174Z,1.33
2022-09-03T01:37:26.718Z,1.37
2022-09-03T01:40:07.890Z,1.27
2022-09-03T01:42:55.036Z,1.10
2022-09-03T01:45:28.020Z,1.20
2022-09-03T01:48:10.450Z,1.40
2022-09-03T01:51:00.174Z,1.20
2022-09-03T01:53:53.066Z,1.40
2022-09-03T01:56:33.470Z,1.43
2022-09-03T01:59:07.271Z,1.43
2022-09-03T02:01:40.385Z,1.07
2022-09-03T02:04:20.717Z,1.30
2022-09-03T02:06:48.923Z,1.50
2022-09-03T02:09:19.402Z,1.30
2022-09-03T02:11:53.285Z,1.30
2022-09-03T02:14:20.439Z,1.20
2022-09-03T02:16:47.356Z,1.10
2022-09-03T02:19:16.708Z,1.27
2022-09-03T02:21:51.199Z,1.30
2022-09-03T02:24:18.216Z,1.50
2022-09-03T02:26:46.840Z,1.30
2022-09-03T02:29:15.826Z,1.10
2022-09-03T02:31:43.710Z,1.20
2022-09-03T02:34:10.962Z,1.10
2022-09-03T02:36:43.468Z,1.40
2022-09-03T02:39:10.306Z,1.17
2022-09-03T02:41:37.307Z,1.30
2022-09-03T02:44:04.173Z,1.10
2022-09-03T02:46:40.189Z,1.20
2022-09-03T02:49:08.432Z,1.07
2022-09-03T02:51:41.802Z,1.30
2022-09-03T02:54:11.764Z,1.27
2022-09-03T02:56:38.711Z,1.30
2022-09-03T02:59:07.508Z,1.40
2022-09-03T03:01:35.290Z,1.27
2022-09-03T03:04:02.840Z,1.00
2022-09-03T03:06:31.279Z,1.53
2022-09-03T03:08:59.861Z,1.10
2022-09-03T03:11:27.302Z,1.20
2022-09-03T03:13:54.176Z,1.13
2022-09-03T03:16:21.245Z,1.03
2022-09-03T03:18:48.178Z,1.20
2022-09-03T03:21:17.273Z,0.90
2022-09-03T03:23:45.179Z,1.20
2022-09-03T03:26:14.215Z,1.00
2022-09-03T03:28:42.405Z,1.00
2022-09-03T03:31:11.618Z,1.00
2022-09-03T03:33:39.502Z,0.93
2022-09-03T03:36:13.533Z,1.20
2022-09-03T03:38:41.565Z,1.10
2022-09-03T03:41:21.896Z,1.20
2022-09-03T03:43:55.951Z,1.00
2022-09-03T03:46:25.441Z,1.10
2022-09-03T03:48:52.745Z,1.00
2022-09-03T03:51:22.733Z,1.10
2022-09-03T03:53:49.584Z,0.90
2022-09-03T03:56:16.885Z,0.90
2022-09-03T03:58:44.260Z,1.07
2022-09-03T04:01:17.790Z,1.07
2022-09-03T04:03:44.753Z,1.00
2022-09-03T04:06:13.277Z,0.90
2022-09-03T04:08:42.456Z,1.17
2022-09-03T04:11:13.080Z,1.00
2022-09-03T04:13:41.826Z,0.80
2022-09-03T04:16:18.550Z,1.00
2022-09-03T04:18:49.151Z,0.90
2022-09-03T04:21:22.539Z,1.10
2022-09-03T04:23:51.221Z,0.90
2022-09-03T04:26:20.807Z,1.00
2022-09-03T04:28:48.757Z,1.10
2022-09-03T04:31:17.490Z,0.90
2022-09-03T04:33:45.267Z,1.00
2022-09-03T04:36:18.082Z,0.90
2022-09-03T04:38:47.309Z,1.03
2022-09-03T04:41:25.907Z,1.10
2022-09-03T04:43:57.477Z,1.30
2022-09-03T04:46:27.589Z,0.97
2022-09-03T04:48:55.267Z,0.93
2022-09-03T04:51:24.093Z,0.80
2022-09-03T04:53:59.126Z,0.90
2022-09-03T04:56:34.189Z,1.00
2022-09-03T04:59:04.569Z,0.90
2022-09-03T05:01:34.562Z,1.00
2022-09-03T05:04:01.845Z,0.77
2022-09-03T05:06:30.231Z,1.00
2022-09-03T05:08:57.594Z,1.10
2022-09-03T05:11:28.075Z,0.90
2022-09-03T05:13:57.471Z,1.10
2022-09-03T05:16:25.345Z,1.07
2022-09-03T05:18:54.082Z,1.03
2022-09-03T05:21:22.569Z,0.90
2022-09-03T05:23:53.185Z,1.00
2022-09-03T05:26:24.674Z,0.80
2022-09-03T05:28:57.107Z,1.10
2022-09-03T05:31:26.876Z,0.90
2022-09-03T05:33:57.813Z,1.23
2022-09-03T05:36:30.256Z,1.00
2022-09-03T05:38:58.838Z,1.20
2022-09-03T05:41:30.126Z,1.10
2022-09-03T05:44:00.867Z,1.10
2022-09-03T05:46:32.823Z,1.13
2022-09-03T05:49:08.855Z,1.20
2022-09-03T05:51:37.097Z,1.00
2022-09-03T05:54:04.026Z,1.00
